Terminal Aerodrome Forecast
Issued by NWS

Home | Current Version | Previous Version | Text Only | Print | Product List | Glossary On
Versions: 1 2 3 4 5 6 7 8 9 10 11 12 13 14 15 16 17
000
FTUS43 KPAH 260541
TAFCGI
TAF
KCGI 260541Z 2606/2706 03010KT 4SM -RA BR VCTS OVC050CB
     FM260800 36015G20KT 3SM -RA BR OVC015
     FM261200 35015G21KT 5SM -SHRA BR BKN015
     FM261900 36010KT P6SM SCT250=

USA.gov is the U.S. government's official web portal to all federal, state and local government web resources and services.